Time;durP1;ratioP1;P1;durP2;ratioP2;P2;SDS_P1;SDS_P2;PMS_P1;PMS_P2;Temp;Humidity;BMP_temperature;BMP_pressure;BME280_temperature;BME280_humidity;BME280_pressure;Samples;Min_cycle;Max_cycle;Signal;HPM_P1;HPM_P2
2022/02/21 00:02:10;;;;;;;0.60;0.50;;;;;;;;;;5112004;28;20174;-66
2022/02/21 00:04:35;;;;;;;1.33;0.53;;;;;;;;;;5093497;28;20240;-66
2022/02/21 00:07:01;;;;;;;0.50;0.40;;;;;;;;;;5092804;28;20440;-66
2022/02/21 00:09:27;;;;;;;1.60;0.70;;;12.10;1.00;;;;;;5112155;28;20971;-66
2022/02/21 00:11:53;;;;;;;0.70;0.53;;;12.10;1.00;;;;;;5110381;28;20538;-65
2022/02/21 00:14:18;;;;;;;1.30;0.50;;;12.10;1.00;;;;;;5079803;28;20466;-66
2022/02/21 00:16:45;;;;;;;1.70;0.60;;;12.20;1.00;;;;;;5104988;28;20186;-65
2022/02/21 00:19:10;;;;;;;1.33;0.57;;;12.20;1.00;;;;;;5085149;28;20205;-65
2022/02/21 00:21:36;;;;;;;0.93;0.60;;;;;;;;;;5101861;28;20908;-65
2022/02/21 00:24:02;;;;;;;3.10;0.60;;;12.20;1.00;;;;;;5097790;28;20198;-66
2022/02/21 00:26:27;;;;;;;2.10;1.07;;;12.20;1.00;;;;;;5109867;28;20440;-66
2022/02/21 00:28:53;;;;;;;1.10;0.60;;;12.10;1.00;;;;;;5104198;28;20217;-65
2022/02/21 00:31:19;;;;;;;0.70;0.60;;;;;;;;;;5106348;28;20206;-66
2022/02/21 00:33:45;;;;;;;1.77;1.17;;;;;;;;;;5099156;28;20266;-66
2022/02/21 00:36:10;;;;;;;0.97;0.50;;;12.10;1.00;;;;;;5105209;28;20591;-67
2022/02/21 00:38:36;;;;;;;1.30;1.07;;;;;;;;;;5109659;28;20444;-66
2022/02/21 00:41:02;;;;;;;1.07;0.83;;;12.30;1.00;;;;;;5102187;28;20201;-66
2022/02/21 00:43:28;;;;;;;1.23;0.50;;;12.30;1.00;;;;;;5093982;28;20439;-66
2022/02/21 00:45:54;;;;;;;2.60;0.60;;;12.30;1.00;;;;;;5106019;28;20444;-66
2022/02/21 00:48:20;;;;;;;1.57;0.63;;;;;;;;;;5075082;28;20190;-66
2022/02/21 00:50:46;;;;;;;1.90;0.60;;;;;;;;;;5095980;28;20217;-66
2022/02/21 00:53:11;;;;;;;0.70;0.70;;;12.30;1.00;;;;;;5102721;28;20563;-65
2022/02/21 00:55:37;;;;;;;4.53;0.90;;;;;;;;;;5110324;28;20414;-67
2022/02/21 00:58:04;;;;;;;3.97;1.07;;;12.40;1.00;;;;;;5098185;28;20564;-63
2022/02/21 01:00:31;;;;;;;2.17;0.83;;;12.40;1.00;;;;;;5096562;28;20548;-65
2022/02/21 01:02:57;;;;;;;0.90;0.70;;;12.50;1.00;;;;;;5095530;28;20471;-65
2022/02/21 01:05:22;;;;;;;1.73;0.70;;;12.40;1.00;;;;;;5093396;28;20423;-66
2022/02/21 01:07:48;;;;;;;0.97;0.67;;;;;;;;;;5096410;28;20511;-65
2022/02/21 01:10:14;;;;;;;2.53;1.00;;;12.40;1.00;;;;;;5095575;28;20185;-66
2022/02/21 01:12:40;;;;;;;1.77;0.80;;;;;;;;;;5094864;28;20441;-66
2022/02/21 01:15:09;;;;;;;1.20;0.80;;;12.40;1.00;;;;;;5107441;28;20921;-67
2022/02/21 01:17:35;;;;;;;2.60;0.73;;;12.50;1.00;;;;;;5100039;28;20451;-65
2022/02/21 01:20:04;;;;;;;3.07;0.50;;;12.50;1.00;;;;;;5082911;28;20473;-66
2022/02/21 01:22:30;;;;;;;1.73;0.80;;;12.50;1.00;;;;;;5085958;28;20179;-65
2022/02/21 01:24:56;;;;;;;2.57;0.90;;;;;;;;;;5096199;28;20645;-65
2022/02/21 01:27:22;;;;;;;2.07;0.60;;;;;;;;;;5100829;28;21014;-65
2022/02/21 01:29:48;;;;;;;2.17;0.73;;;;;;;;;;5093618;28;20460;-65
2022/02/21 01:32:14;;;;;;;3.03;0.60;;;12.60;1.00;;;;;;5102661;28;20576;-65
2022/02/21 01:34:40;;;;;;;0.80;0.60;;;12.60;1.00;;;;;;5095504;28;20464;-65
2022/02/21 01:37:05;;;;;;;0.57;0.43;;;12.60;1.00;;;;;;5104326;28;20190;-66
2022/02/21 01:39:31;;;;;;;1.33;0.73;;;12.60;1.00;;;;;;5093678;28;20182;-65
2022/02/21 01:41:56;;;;;;;1.90;0.60;;;12.60;1.00;;;;;;5092960;28;20266;-65
2022/02/21 01:44:37;;;;;;;0.80;0.50;;;12.60;1.00;;;;;;5097122;28;20182;-65
2022/02/21 01:47:05;;;;;;;0.80;0.70;;;12.60;1.00;;;;;;5094047;28;20186;-65
2022/02/21 01:49:31;;;;;;;3.53;1.00;;;12.60;1.00;;;;;;5107864;28;20817;-65
2022/02/21 01:51:56;;;;;;;1.83;0.40;;;12.60;1.00;;;;;;5103466;28;20531;-65
2022/02/21 01:54:22;;;;;;;0.70;0.50;;;12.60;1.00;;;;;;5109897;28;20232;-66
2022/02/21 01:56:48;;;;;;;0.67;0.30;;;12.60;1.00;;;;;;5098174;28;20265;-66
2022/02/21 01:59:13;;;;;;;0.60;0.40;;;12.60;1.00;;;;;;5100173;28;20181;-66
2022/02/21 02:01:39;;;;;;;0.80;0.40;;;12.70;1.00;;;;;;5097958;28;20710;-67
2022/02/21 02:04:05;;;;;;;1.10;0.40;;;12.70;1.00;;;;;;5104743;28;20260;-65
2022/02/21 02:06:32;;;;;;;0.87;0.50;;;12.70;1.00;;;;;;5096844;28;20270;-66
2022/02/21 02:08:58;;;;;;;3.03;0.33;;;12.70;1.00;;;;;;5104440;28;21154;-66
2022/02/21 02:11:25;;;;;;;1.37;0.50;;;12.80;1.00;;;;;;5093020;28;20414;-65
2022/02/21 02:13:51;;;;;;;0.60;0.50;;;;;;;;;;5097529;28;20544;-66
2022/02/21 02:16:18;;;;;;;0.60;0.43;;;12.70;1.00;;;;;;5093809;28;20940;-66
2022/02/21 02:18:44;;;;;;;0.70;0.40;;;12.70;1.00;;;;;;5106883;28;20440;-66
2022/02/21 02:21:14;;;;;;;1.30;0.40;;;12.70;1.00;;;;;;5106588;28;20496;-65
2022/02/21 02:23:40;;;;;;;0.90;0.47;;;12.70;1.00;;;;;;5110738;28;20253;-65
2022/02/21 02:26:06;;;;;;;0.40;0.33;;;12.60;1.00;;;;;;5099418;28;20523;-65
2022/02/21 02:28:31;;;;;;;0.90;0.53;;;12.70;1.00;;;;;;5107738;28;20422;-66
2022/02/21 02:37:49;;;;;;;3.07;0.40;;;12.60;1.00;;;;;;4880915;28;20466;-65
2022/02/21 02:40:15;;;;;;;1.27;0.47;;;12.50;1.00;;;;;;5091626;28;20416;-66
2022/02/21 02:42:42;;;;;;;0.50;0.37;;;;;;;;;;5101507;28;20497;-65
2022/02/21 02:48:33;;;;;;;2.43;0.70;;;12.50;1.00;;;;;;4943061;28;20472;-66
2022/02/21 02:51:00;;;;;;;2.80;0.40;;;12.50;1.00;;;;;;5072995;28;20441;-65
2022/02/21 02:53:26;;;;;;;0.70;0.30;;;;;;;;;;5099269;28;20244;-65
2022/02/21 02:55:51;;;;;;;0.93;0.57;;;;;;;;;;5107891;28;20471;-65
2022/02/21 02:58:17;;;;;;;0.93;0.40;;;12.60;1.00;;;;;;5100214;28;20484;-65
2022/02/21 03:00:43;;;;;;;1.40;0.40;;;12.60;1.00;;;;;;5093063;28;20528;-65
2022/02/21 03:03:08;;;;;;;0.93;0.50;;;12.60;1.00;;;;;;5089761;28;20255;-65
2022/02/21 03:05:34;;;;;;;0.40;0.30;;;12.60;1.00;;;;;;5094711;28;20221;-66
2022/02/21 03:07:59;;;;;;;0.70;0.40;;;12.50;1.00;;;;;;5099516;28;20190;-64
2022/02/21 03:10:25;;;;;;;1.07;0.30;;;12.50;1.00;;;;;;5108215;28;20646;-63
2022/02/21 03:12:51;;;;;;;0.60;0.30;;;;;;;;;;5102287;28;20194;-64
2022/02/21 03:15:17;;;;;;;1.10;0.40;;;;;;;;;;5107144;28;20190;-65
2022/02/21 03:17:43;;;;;;;0.57;0.37;;;;;;;;;;5094008;28;20542;-65
2022/02/21 03:20:09;;;;;;;0.33;0.33;;;12.50;1.00;;;;;;5100465;28;20418;-65
2022/02/21 03:22:35;;;;;;;1.93;0.40;;;12.50;1.00;;;;;;5112632;28;20436;-66
2022/02/21 03:25:00;;;;;;;0.33;0.33;;;12.50;1.00;;;;;;5098464;28;20965;-64
2022/02/21 03:27:26;;;;;;;0.60;0.47;;;;;;;;;;5097586;28;20198;-64
2022/02/21 03:29:52;;;;;;;0.63;0.30;;;;;;;;;;5109941;28;20220;-64
2022/02/21 03:32:18;;;;;;;0.90;0.30;;;12.40;1.00;;;;;;5103713;28;20451;-65
2022/02/21 03:34:43;;;;;;;1.70;0.40;;;12.50;1.00;;;;;;5106573;28;20560;-65
2022/02/21 03:37:09;;;;;;;1.00;0.30;;;12.40;1.00;;;;;;5099357;28;20189;-66
2022/02/21 03:39:35;;;;;;;1.40;0.27;;;;;;;;;;5113050;28;20631;-65
2022/02/21 03:42:00;;;;;;;0.40;0.20;;;12.40;1.00;;;;;;5100949;28;20174;-66
2022/02/21 03:44:26;;;;;;;0.80;0.40;;;12.40;1.00;;;;;;5107085;28;20459;-66
2022/02/21 03:46:51;;;;;;;1.50;0.37;;;12.30;1.00;;;;;;5100667;28;20189;-65
2022/02/21 03:49:17;;;;;;;0.73;0.50;;;12.40;1.00;;;;;;5113778;28;20658;-65
2022/02/21 03:51:43;;;;;;;1.67;0.50;;;;;;;;;;5084058;28;20210;-64
2022/02/21 03:54:09;;;;;;;1.07;0.60;;;12.20;1.00;;;;;;5098145;28;20226;-68
2022/02/21 03:56:35;;;;;;;0.57;0.47;;;;;;;;;;5112623;28;20544;-69
2022/02/21 03:59:01;;;;;;;0.60;0.30;;;;;;;;;;5108611;28;20443;-65
2022/02/21 04:01:28;;;;;;;2.83;0.50;;;8.80;1.00;;;;;;5106306;28;20877;-64
2022/02/21 04:03:53;;;;;;;0.40;0.30;;;8.20;1.00;;;;;;5099943;28;20436;-64
2022/02/21 04:06:19;;;;;;;1.37;0.47;;;;;;;;;;5102328;28;20963;-65
2022/02/21 04:08:45;;;;;;;0.40;0.30;;;;;;;;;;5112752;28;20201;-65
2022/02/21 04:11:11;;;;;;;1.07;0.50;;;;;;;;;;5102688;28;20909;-65
2022/02/21 04:13:37;;;;;;;0.30;0.20;;;;;;;;;;5107769;28;20464;-64
2022/02/21 04:16:06;;;;;;;2.63;0.50;;;8.00;1.00;;;;;;5112377;28;20458;-65
2022/02/21 04:18:32;;;;;;;0.30;0.20;;;;;;;;;;5103973;28;20446;-65
2022/02/21 04:20:58;;;;;;;1.13;0.20;;;8.10;1.00;;;;;;5102599;28;20447;-66
2022/02/21 04:23:24;;;;;;;1.40;0.30;;;;;;;;;;5092822;28;20460;-64
2022/02/21 04:25:49;;;;;;;0.80;0.40;;;8.40;1.00;;;;;;5099384;28;20955;-65
2022/02/21 04:28:20;;;;;;;0.40;0.37;;;8.40;1.00;;;;;;5095494;28;20479;-64
2022/02/21 04:30:45;;;;;;;0.87;0.30;;;8.50;1.00;;;;;;5096366;28;20647;-65
2022/02/21 04:33:11;;;;;;;1.30;0.40;;;8.60;1.00;;;;;;5095915;28;20598;-66
2022/02/21 04:35:36;;;;;;;0.30;0.20;;;8.60;1.00;;;;;;5103108;28;20190;-66
2022/02/21 04:38:02;;;;;;;1.13;0.30;;;8.70;1.00;;;;;;5106904;28;20190;-66
2022/02/21 04:40:28;;;;;;;0.90;0.50;;;8.80;1.00;;;;;;5108009;28;20712;-64
2022/02/21 04:42:54;;;;;;;0.43;0.33;;;8.80;1.00;;;;;;5108537;28;20209;-65
2022/02/21 04:45:21;;;;;;;0.57;0.50;;;9.00;1.00;;;;;;5107591;28;20479;-66
2022/02/21 04:47:47;;;;;;;0.50;0.40;;;9.00;1.00;;;;;;5102301;28;20904;-66
2022/02/21 04:50:13;;;;;;;0.50;0.30;;;8.90;1.00;;;;;;5094239;28;20532;-65
2022/02/21 04:52:40;;;;;;;0.47;0.30;;;;;;;;;;5092094;28;20490;-66
2022/02/21 04:55:07;;;;;;;0.67;0.50;;;8.70;1.00;;;;;;5103836;28;20559;-65
2022/02/21 04:57:34;;;;;;;0.50;0.43;;;;;;;;;;5106387;28;20440;-65
2022/02/21 05:00:00;;;;;;;0.50;0.40;;;8.80;1.00;;;;;;5110805;28;20556;-66
2022/02/21 05:02:26;;;;;;;0.50;0.30;;;;;;;;;;5096586;28;20535;-65
2022/02/21 05:04:54;;;;;;;1.60;0.60;;;;;;;;;;5111208;28;20482;-65
2022/02/21 05:07:20;;;;;;;0.97;0.40;;;;;;;;;;5092475;28;20925;-65
2022/02/21 05:09:46;;;;;;;0.57;0.23;;;8.90;1.00;;;;;;5091528;28;20501;-64
2022/02/21 05:12:12;;;;;;;0.50;0.37;;;8.90;1.00;;;;;;5095554;28;20454;-64
2022/02/21 05:14:37;;;;;;;0.83;0.50;;;;;;;;;;5073044;28;20686;-64
2022/02/21 05:17:05;;;;;;;0.50;0.30;;;8.90;1.00;;;;;;5097409;28;20193;-64
2022/02/21 05:19:31;;;;;;;0.80;0.30;;;8.90;1.00;;;;;;5092320;28;20505;-64
2022/02/21 05:21:57;;;;;;;0.40;0.40;;;;;;;;;;5094922;28;20475;-63
2022/02/21 05:24:23;;;;;;;2.47;1.13;;;8.70;1.00;;;;;;5100836;28;20504;-64
2022/02/21 05:26:49;;;;;;;1.07;0.30;;;8.70;1.00;;;;;;5102349;28;20546;-63
2022/02/21 05:29:15;;;;;;;0.30;0.30;;;8.80;1.00;;;;;;5098963;28;20191;-63
2022/02/21 05:31:41;;;;;;;1.47;0.30;;;;;;;;;;5095971;28;20981;-63
2022/02/21 05:34:06;;;;;;;2.50;0.30;;;8.90;1.00;;;;;;5107090;28;20213;-63
2022/02/21 05:36:32;;;;;;;0.50;0.50;;;8.90;1.00;;;;;;5089119;28;20437;-61
2022/02/21 05:38:57;;;;;;;0.87;0.40;;;8.90;1.00;;;;;;5100896;28;20183;-64
2022/02/21 05:41:23;;;;;;;0.80;0.67;;;;;;;;;;5107343;28;20211;-65
2022/02/21 05:43:49;;;;;;;1.57;0.93;;;;;;;;;;5090496;28;20323;-64
2022/02/21 05:46:15;;;;;;;1.07;0.40;;;;;;;;;;5092328;28;20439;-65
2022/02/21 05:48:41;;;;;;;0.80;0.43;;;;;;;;;;5092763;28;20456;-64
2022/02/21 05:51:07;;;;;;;0.70;0.40;;;;;;;;;;5093331;28;20440;-64
2022/02/21 05:53:33;;;;;;;0.37;0.37;;;;;;;;;;5094155;28;21118;-65
2022/02/21 05:55:59;;;;;;;0.50;0.40;;;8.60;1.00;;;;;;5099740;28;20500;-64
2022/02/21 05:58:25;;;;;;;0.87;0.60;;;;;;;;;;5095318;28;20475;-64
2022/02/21 06:00:51;;;;;;;0.80;0.50;;;;;;;;;;5102353;28;20187;-63
2022/02/21 06:03:17;;;;;;;2.57;0.50;;;8.40;1.00;;;;;;5097053;28;20441;-65
2022/02/21 06:05:46;;;;;;;1.40;0.50;;;;;;;;;;5092425;28;20539;-63
2022/02/21 06:08:12;;;;;;;1.23;0.50;;;;;;;;;;5096857;28;20563;-64
2022/02/21 06:10:37;;;;;;;1.03;0.43;;;8.40;1.00;;;;;;5109228;28;20488;-64
2022/02/21 06:13:03;;;;;;;1.00;0.50;;;8.50;1.00;;;;;;5097152;28;20453;-64
2022/02/21 06:15:28;;;;;;;1.90;0.53;;;;;;;;;;5094086;28;20269;-65
2022/02/21 06:17:54;;;;;;;1.10;0.30;;;8.50;1.00;;;;;;5093175;28;20234;-66
2022/02/21 06:20:20;;;;;;;1.20;0.40;;;;;;;;;;5093880;28;20533;-66
2022/02/21 06:22:46;;;;;;;2.43;0.50;;;;;;;;;;5103959;28;20628;-65
2022/02/21 06:25:14;;;;;;;1.50;0.30;;;8.70;1.00;;;;;;5101982;28;20455;-65
2022/02/21 06:27:41;;;;;;;1.30;0.60;;;;;;;;;;5095079;28;20472;-64
2022/02/21 06:30:07;;;;;;;1.00;0.40;;;;;;;;;;5094214;28;20440;-65
2022/02/21 06:32:34;;;;;;;1.70;0.60;;;8.30;1.00;;;;;;5110358;28;20436;-64
2022/02/21 06:35:00;;;;;;;2.30;0.60;;;;;;;;;;5096336;28;20559;-66
2022/02/21 06:37:26;;;;;;;1.53;0.50;;;;;;;;;;5091695;28;20921;-65
2022/02/21 06:39:52;;;;;;;1.70;0.50;;;;;;;;;;5107446;28;20458;-65
2022/02/21 06:42:17;;;;;;;0.50;0.40;;;8.30;1.00;;;;;;5096310;28;20436;-65
2022/02/21 06:44:43;;;;;;;1.60;0.77;;;8.40;1.00;;;;;;5090643;28;20452;-65
2022/02/21 06:47:09;;;;;;;1.23;0.60;;;8.40;1.00;;;;;;5109787;28;20181;-65
2022/02/21 06:49:35;;;;;;;1.47;0.50;;;;;;;;;;5099933;28;20189;-64
2022/02/21 06:52:00;;;;;;;1.10;1.00;;;8.10;1.00;;;;;;5090336;28;20209;-64
2022/02/21 06:54:26;;;;;;;0.83;0.50;;;;;;;;;;5090333;28;20555;-64
2022/02/21 06:56:52;;;;;;;1.07;0.53;;;;;;;;;;5093225;28;20186;-65
2022/02/21 06:59:18;;;;;;;0.70;0.60;;;;;;;;;;5109202;28;20436;-65
2022/02/21 07:01:44;;;;;;;0.50;0.47;;;;;;;;;;5098220;28;20444;-64
2022/02/21 07:04:10;;;;;;;1.53;0.60;;;;;;;;;;5090839;28;20981;-64
2022/02/21 07:06:36;;;;;;;1.30;0.70;;;8.00;1.00;;;;;;5089727;28;20472;-65
2022/02/21 07:09:03;;;;;;;2.30;0.63;;;7.90;1.00;;;;;;5090457;28;20495;-64
2022/02/21 07:11:29;;;;;;;1.07;0.60;;;;;;;;;;5091270;28;20190;-65
2022/02/21 07:13:54;;;;;;;0.90;0.70;;;7.80;1.00;;;;;;5093822;28;21015;-64
2022/02/21 07:16:20;;;;;;;3.70;1.07;;;7.80;1.00;;;;;;5105372;28;20467;-64
2022/02/21 07:18:46;;;;;;;1.47;0.73;;;;;;;;;;5107339;28;20212;-63
2022/02/21 07:21:12;;;;;;;0.50;0.40;;;;;;;;;;5098789;28;20190;-65
2022/02/21 07:23:38;;;;;;;0.77;0.50;;;;;;;;;;5097053;28;20443;-65
2022/02/21 07:26:06;;;;;;;2.50;0.70;;;6.00;1.00;;;;;;5100311;28;20539;-66
2022/02/21 07:28:32;;;;;;;1.13;0.67;;;5.60;1.00;;;;;;5098724;28;20439;-65
2022/02/21 07:30:58;;;;;;;2.03;0.80;;;5.40;1.00;;;;;;5104642;28;20427;-65
2022/02/21 07:33:24;;;;;;;1.20;0.80;;;5.20;1.00;;;;;;5110338;28;20494;-66
2022/02/21 07:35:49;;;;;;;2.10;0.63;;;5.00;1.00;;;;;;5099465;28;20179;-65
2022/02/21 07:38:15;;;;;;;1.00;0.63;;;;;;;;;;5103391;28;20218;-66
2022/02/21 07:40:41;;;;;;;1.53;0.60;;;;;;;;;;5102600;28;20190;-65
2022/02/21 07:43:08;;;;;;;1.53;0.70;;;;;;;;;;5097300;28;20496;-65
2022/02/21 07:45:34;;;;;;;1.13;0.50;;;;;;;;;;5099809;28;20476;-64
2022/02/21 07:48:03;;;;;;;0.73;0.70;;;4.60;1.00;;;;;;5094974;28;20448;-63
2022/02/21 07:50:30;;;;;;;0.60;0.50;;;4.50;1.00;;;;;;5095660;28;20468;-63
2022/02/21 07:52:57;;;;;;;0.90;0.60;;;4.50;1.00;;;;;;5097580;28;20471;-63
2022/02/21 07:55:24;;;;;;;0.70;0.50;;;;;;;;;;5093856;28;20467;-64
2022/02/21 07:57:50;;;;;;;1.70;0.80;;;4.60;1.00;;;;;;5090895;28;20934;-64
2022/02/21 08:00:17;;;;;;;0.70;0.70;;;4.60;1.00;;;;;;5107656;28;20828;-63
2022/02/21 08:02:43;;;;;;;1.90;0.70;;;4.80;1.00;;;;;;5108985;28;21156;-65
2022/02/21 08:05:09;;;;;;;2.73;1.10;;;4.80;1.00;;;;;;5096938;28;20436;-63
2022/02/21 08:07:35;;;;;;;1.57;0.57;;;;;;;;;;5103353;28;20190;-62
2022/02/21 08:10:01;;;;;;;2.87;0.80;;;5.20;1.00;;;;;;5104407;28;20447;-63
2022/02/21 08:12:27;;;;;;;4.90;0.97;;;5.30;1.00;;;;;;5097346;28;20921;-63
2022/02/21 08:14:52;;;;;;;3.23;0.90;;;5.50;1.00;;;;;;5093366;28;20260;-64
2022/02/21 08:17:18;;;;;;;1.37;0.80;;;5.50;1.00;;;;;;5110012;28;20182;-64
2022/02/21 08:19:44;;;;;;;6.60;1.77;;;5.60;1.00;;;;;;5105883;28;20187;-64
2022/02/21 08:22:10;;;;;;;2.87;1.00;;;;;;;;;;5094709;28;20524;-64
2022/02/21 08:24:36;;;;;;;4.10;1.10;;;5.90;1.00;;;;;;5109405;28;20667;-64
2022/02/21 08:27:02;;;;;;;3.20;1.70;;;6.20;1.00;;;;;;5102036;28;20531;-65
2022/02/21 08:29:28;;;;;;;2.20;1.30;;;6.20;1.00;;;;;;5096322;28;20486;-65
2022/02/21 08:31:57;;;;;;;4.00;0.90;;;6.30;1.00;;;;;;5095718;28;20437;-64
2022/02/21 08:34:24;;;;;;;2.40;1.00;;;6.30;1.00;;;;;;5096009;28;20647;-64
2022/02/21 08:36:50;;;;;;;4.47;1.00;;;6.40;1.00;;;;;;5111857;28;20439;-65
2022/02/21 08:39:16;;;;;;;2.70;1.13;;;6.40;1.00;;;;;;5097812;28;20451;-64
2022/02/21 08:41:42;;;;;;;4.13;1.30;;;;;;;;;;5092804;28;20429;-64
2022/02/21 08:44:07;;;;;;;1.70;1.00;;;6.50;1.00;;;;;;5094749;28;20552;-64
2022/02/21 08:46:33;;;;;;;2.27;1.10;;;6.70;1.00;;;;;;5093037;28;20581;-64
2022/02/21 08:48:59;;;;;;;4.90;1.40;;;;;;;;;;5096786;28;20191;-64
2022/02/21 08:51:26;;;;;;;4.10;1.17;;;6.80;1.00;;;;;;5097603;28;20182;-63
2022/02/21 08:53:52;;;;;;;3.60;0.93;;;;;;;;;;5100235;28;20532;-63
2022/02/21 08:56:18;;;;;;;4.13;1.10;;;;;;;;;;5092408;28;20440;-65
2022/02/21 08:58:46;;;;;;;1.97;1.03;;;6.80;1.00;;;;;;5096004;28;20440;-65
2022/02/21 09:01:12;;;;;;;1.67;0.97;;;6.80;1.00;;;;;;5076397;28;20467;-65
2022/02/21 09:03:37;;;;;;;2.37;1.03;;;7.00;1.00;;;;;;5095337;28;20444;-65
2022/02/21 09:06:08;;;;;;;1.93;1.00;;;;;;;;;;5099472;28;20655;-64
2022/02/21 09:08:34;;;;;;;1.70;0.83;;;7.30;1.00;;;;;;5109087;28;20186;-65
2022/02/21 09:11:01;;;;;;;1.47;1.00;;;7.30;1.00;;;;;;5092787;28;20444;-65
2022/02/21 09:13:27;;;;;;;3.60;0.97;;;7.40;1.00;;;;;;5107413;28;20470;-66
2022/02/21 09:15:53;;;;;;;1.80;0.77;;;;;;;;;;5102294;28;20436;-66
2022/02/21 09:18:18;;;;;;;5.57;1.53;;;7.70;1.00;;;;;;5097141;28;20543;-67
2022/02/21 09:20:44;;;;;;;0.80;0.60;;;;;;;;;;5112218;28;22047;-65
2022/02/21 09:23:10;;;;;;;5.20;1.90;;;;;;;;;;5092197;28;20183;-65
2022/02/21 09:25:36;;;;;;;2.00;0.77;;;7.70;1.00;;;;;;5092950;28;20519;-65
2022/02/21 09:28:02;;;;;;;1.43;0.87;;;7.70;1.00;;;;;;5094330;28;20498;-66
2022/02/21 09:30:28;;;;;;;4.30;1.00;;;7.90;1.00;;;;;;5073712;28;20175;-65
2022/02/21 09:32:55;;;;;;;2.27;1.13;;;;;;;;;;5095332;28;20791;-66
2022/02/21 09:35:21;;;;;;;2.57;1.30;;;8.10;1.00;;;;;;5103959;28;20210;-67
2022/02/21 09:37:46;;;;;;;1.13;0.80;;;8.40;1.00;;;;;;5104337;28;20462;-66
2022/02/21 09:40:13;;;;;;;1.93;0.77;;;8.30;1.00;;;;;;5111983;28;20198;-66
2022/02/21 09:42:39;;;;;;;2.97;1.13;;;8.50;1.00;;;;;;5110320;28;20217;-66
2022/02/21 09:45:07;;;;;;;1.80;0.83;;;8.10;1.00;;;;;;5108703;28;20891;-67
2022/02/21 09:47:33;;;;;;;3.03;1.77;;;8.00;1.00;;;;;;5091625;28;20456;-67
2022/02/21 09:50:00;;;;;;;4.80;1.03;;;7.90;1.00;;;;;;5092874;28;20436;-66
2022/02/21 09:52:27;;;;;;;3.20;0.90;;;7.90;1.00;;;;;;5094543;28;20472;-66
2022/02/21 09:54:53;;;;;;;3.03;1.10;;;8.20;1.00;;;;;;5094669;28;20460;-66
2022/02/21 09:57:19;;;;;;;2.50;0.80;;;8.10;1.00;;;;;;5094665;28;20441;-67
2022/02/21 09:59:45;;;;;;;2.30;1.17;;;8.10;1.00;;;;;;5093260;28;20455;-66
2022/02/21 10:02:23;;;;;;;1.93;0.73;;;8.10;1.00;;;;;;5098889;28;20450;-66
2022/02/21 10:05:15;;;;;;;2.70;1.10;;;8.00;1.00;;;;;;5110116;28;20446;-66
2022/02/21 10:07:42;;;;;;;2.43;0.93;;;8.30;1.00;;;;;;5104290;28;20439;-67
2022/02/21 10:10:08;;;;;;;8.57;1.00;;;8.20;1.00;;;;;;5104450;28;20432;-67
2022/02/21 10:12:52;;;;;;;2.00;0.80;;;8.00;1.00;;;;;;5096871;28;20444;-67
2022/02/21 10:15:20;;;;;;;2.73;1.20;;;7.80;1.00;;;;;;5095901;28;20464;-66
2022/02/21 10:17:47;;;;;;;2.80;1.17;;;7.90;1.00;;;;;;5102289;28;20428;-67
2022/02/21 10:20:13;;;;;;;5.97;0.67;;;8.00;1.00;;;;;;5100895;28;20443;-66
2022/02/21 10:22:39;;;;;;;2.23;0.97;;;8.10;1.00;;;;;;5093859;28;20467;-66
2022/02/21 10:25:23;;;;;;;3.23;1.10;;;8.00;1.00;;;;;;5098679;28;20444;-66
2022/02/21 10:27:48;;;;;;;1.83;1.20;;;8.00;1.00;;;;;;5091801;28;20444;-66
2022/02/21 10:30:16;;;;;;;3.70;0.80;;;7.90;1.00;;;;;;5106009;28;20435;-66
2022/02/21 10:32:43;;;;;;;1.93;0.70;;;;;;;;;;5110225;28;20194;-67
2022/02/21 10:35:17;;;;;;;2.10;0.90;;;7.80;1.00;;;;;;5098427;28;20464;-66
2022/02/21 10:37:45;;;;;;;2.70;0.70;;;7.90;1.00;;;;;;5091630;28;20444;-66
2022/02/21 10:40:16;;;;;;;1.23;0.67;;;8.20;1.00;;;;;;5089402;28;20432;-65
2022/02/21 10:42:44;;;;;;;1.07;0.53;;;8.40;1.00;;;;;;5094693;28;20448;-67
2022/02/21 10:45:20;;;;;;;3.13;0.70;;;8.50;1.00;;;;;;5101681;28;20439;-65
2022/02/21 10:48:20;;;;;;;1.17;0.53;;;8.50;1.00;;;;;;5095954;28;20452;-64
2022/02/21 10:51:01;;;;;;;1.90;0.80;;;8.40;1.00;;;;;;5103628;28;20488;-65
2022/02/21 10:53:41;;;;;;;4.03;1.00;;;8.20;1.00;;;;;;5109929;28;20502;-65
2022/02/21 10:56:08;;;;;;;2.63;0.80;;;8.20;1.00;;;;;;5091660;28;20432;-66
2022/02/21 10:58:34;;;;;;;0.70;0.70;;;8.40;1.00;;;;;;5107655;28;20999;-65
2022/02/21 11:01:01;;;;;;;8.63;1.80;;;8.60;1.00;;;;;;5101694;28;20445;-64
2022/02/21 11:03:28;;;;;;;1.97;0.63;;;8.60;1.00;;;;;;5095590;28;20175;-65
2022/02/21 11:05:55;;;;;;;2.73;1.03;;;8.70;1.00;;;;;;5098137;28;20505;-66
2022/02/21 11:08:22;;;;;;;2.20;0.80;;;8.80;1.00;;;;;;5085998;28;20836;-65
2022/02/21 11:10:52;;;;;;;0.60;0.50;;;8.60;1.00;;;;;;5106010;28;20519;-65
2022/02/21 11:13:20;;;;;;;2.47;0.70;;;8.70;1.00;;;;;;5099393;28;20449;-66
2022/02/21 11:15:48;;;;;;;1.63;0.80;;;8.70;1.00;;;;;;5103348;28;20443;-67
2022/02/21 11:18:17;;;;;;;1.97;0.70;;;9.00;1.00;;;;;;5090549;28;20972;-66
2022/02/21 11:20:46;;;;;;;2.40;0.80;;;9.10;1.00;;;;;;5094617;28;20440;-66
2022/02/21 11:23:11;;;;;;;1.30;0.90;;;8.90;1.00;;;;;;5090188;28;20432;-66
2022/02/21 11:26:06;;;;;;;1.00;0.80;;;8.90;1.00;;;;;;5090207;28;20439;-66
2022/02/21 11:28:54;;;;;;;1.50;0.60;;;9.00;1.00;;;;;;5092302;28;20425;-67
2022/02/21 11:31:25;;;;;;;0.73;0.70;;;;;;;;;;5093551;28;20520;-67
2022/02/21 11:34:03;;;;;;;1.77;0.60;;;8.70;1.00;;;;;;5076322;28;20494;-65
2022/02/21 11:36:29;;;;;;;6.03;0.70;;;8.70;1.00;;;;;;5108037;28;20888;-66
2022/02/21 11:38:56;;;;;;;1.70;0.80;;;8.60;1.00;;;;;;5105112;28;20862;-66
2022/02/21 11:41:34;;;;;;;1.50;0.80;;;8.80;1.00;;;;;;5108765;28;20439;-67
2022/02/21 11:44:20;;;;;;;1.10;0.70;;;8.80;1.00;;;;;;5111868;28;20435;-66
2022/02/21 11:46:47;;;;;;;5.80;1.00;;;8.80;1.00;;;;;;5105237;28;20464;-66
2022/02/21 11:49:26;;;;;;;1.17;0.87;;;;;;;;;;5100791;28;20522;-67
2022/02/21 11:51:52;;;;;;;2.30;0.60;;;;;;;;;;5097155;28;20443;-65
2022/02/21 11:54:20;;;;;;;1.83;0.90;;;9.20;1.00;;;;;;5093876;28;20480;-66
2022/02/21 11:56:49;;;;;;;3.50;1.10;;;9.30;1.00;;;;;;5099612;28;20911;-65
2022/02/21 11:59:23;;;;;;;3.20;0.97;;;9.60;1.00;;;;;;5106318;28;21233;-66
2022/02/21 12:02:12;;;;;;;2.60;0.80;;;9.50;1.00;;;;;;5108489;28;20859;-66
2022/02/21 12:04:55;;;;;;;2.50;0.83;;;9.60;1.00;;;;;;5101634;28;20443;-66
2022/02/21 12:07:33;;;;;;;1.20;0.80;;;9.90;1.00;;;;;;5108547;28;20455;-66
2022/02/21 12:10:23;;;;;;;1.83;0.87;;;9.80;1.00;;;;;;5098190;28;20477;-67
2022/02/21 12:12:52;;;;;;;3.33;0.70;;;9.70;1.00;;;;;;5104743;28;20448;-67
2022/02/21 12:15:18;;;;;;;6.50;1.00;;;9.70;1.00;;;;;;5103742;28;20481;-67
2022/02/21 12:17:44;;;;;;;2.00;0.73;;;9.40;1.00;;;;;;5113225;28;20432;-67
2022/02/21 12:20:34;;;;;;;2.30;1.13;;;9.50;1.00;;;;;;5109715;28;20443;-61
2022/02/21 12:23:12;;;;;;;3.30;1.00;;;9.80;1.00;;;;;;5100646;28;20975;-60
2022/02/21 12:25:42;;;;;;;0.90;0.73;;;9.70;1.00;;;;;;5107101;28;20447;-61
2022/02/21 12:28:20;;;;;;;4.33;0.73;;;9.60;1.00;;;;;;5099986;28;21001;-61
2022/02/21 12:30:54;;;;;;;2.00;0.87;;;9.60;1.00;;;;;;5108364;28;20430;-60
2022/02/21 12:33:25;;;;;;;2.10;0.60;;;9.60;1.00;;;;;;5093109;28;20786;-60
2022/02/21 12:35:53;;;;;;;2.53;1.00;;;9.70;1.00;;;;;;5098817;28;20494;-60
2022/02/21 12:38:20;;;;;;;3.73;0.80;;;9.70;1.00;;;;;;5109042;28;20454;-61
2022/02/21 12:40:59;;;;;;;2.37;0.90;;;9.60;1.00;;;;;;5106437;28;20944;-61
2022/02/21 12:43:25;;;;;;;1.60;0.83;;;;;;;;;;5096799;28;20832;-60
2022/02/21 12:45:51;;;;;;;2.60;1.43;;;9.70;1.00;;;;;;5099116;28;20443;-61
2022/02/21 12:48:16;;;;;;;3.00;0.97;;;9.80;1.00;;;;;;5110482;28;20451;-61
2022/02/21 12:50:42;;;;;;;1.93;0.97;;;;;;;;;;5107362;28;20191;-59
2022/02/21 12:53:08;;;;;;;2.03;0.93;;;;;;;;;;5109670;28;20210;-61
2022/02/21 12:55:45;;;;;;;2.60;1.00;;;10.40;1.00;;;;;;5100994;28;20957;-61
2022/02/21 12:58:10;;;;;;;1.77;0.90;;;10.10;1.00;;;;;;5106869;28;20443;-61
2022/02/21 13:00:36;;;;;;;2.70;1.10;;;;;;;;;;5102058;28;20863;-60
2022/02/21 13:03:02;;;;;;;3.83;0.80;;;10.00;1.00;;;;;;5097345;28;20201;-61
2022/02/21 13:05:27;;;;;;;3.67;1.00;;;10.00;1.00;;;;;;5098243;28;20443;-60
2022/02/21 13:07:54;;;;;;;5.50;1.37;;;9.70;1.00;;;;;;5105514;28;20671;-60
2022/02/21 13:10:20;;;;;;;3.53;1.33;;;9.60;1.00;;;;;;5102709;28;20189;-60
2022/02/21 13:12:46;;;;;;;1.83;0.90;;;9.70;1.00;;;;;;5107840;28;20448;-61
2022/02/21 13:15:15;;;;;;;2.70;0.97;;;9.60;1.00;;;;;;5087562;28;20322;-61
2022/02/21 13:17:41;;;;;;;4.37;1.30;;;9.60;1.00;;;;;;5110185;28;20527;-60
2022/02/21 13:20:07;;;;;;;2.63;1.13;;;9.70;1.00;;;;;;5111315;28;20564;-61
2022/02/21 13:22:36;;;;;;;1.90;0.80;;;;;;;;;;5112482;28;20411;-61
2022/02/21 13:25:04;;;;;;;2.60;0.90;;;9.90;1.00;;;;;;5112278;28;20440;-60
2022/02/21 13:27:33;;;;;;;3.53;1.17;;;10.00;1.00;;;;;;5094317;28;20564;-61
2022/02/21 13:29:59;;;;;;;3.07;1.10;;;10.20;1.00;;;;;;5092065;28;20520;-60
2022/02/21 13:32:30;;;;;;;2.60;0.90;;;9.80;1.00;;;;;;5092250;28;20433;-61
2022/02/21 13:35:03;;;;;;;3.40;1.10;;;9.70;1.00;;;;;;5105234;28;20608;-60
2022/02/21 13:37:31;;;;;;;7.17;1.23;;;9.70;1.00;;;;;;5112506;28;20432;-61
2022/02/21 13:40:11;;;;;;;2.60;0.70;;;9.60;1.00;;;;;;5111689;28;20851;-61
2022/02/21 13:42:40;;;;;;;2.40;0.80;;;9.70;1.00;;;;;;5091693;28;20447;-60